createdAt,value
2023-01-23T00:02:16.810Z,2.58
2023-01-23T00:04:44.091Z,2.60
2023-01-23T00:07:11.028Z,2.64
2023-01-23T00:09:37.891Z,2.58
2023-01-23T00:12:05.877Z,2.54
2023-01-23T00:14:32.900Z,2.51
2023-01-23T00:16:59.865Z,2.48
2023-01-23T00:19:26.753Z,2.48
2023-01-23T00:21:53.565Z,2.50
2023-01-23T00:24:20.363Z,2.49
2023-01-23T00:26:47.397Z,2.48
2023-01-23T00:29:15.714Z,2.47
2023-01-23T00:31:42.727Z,2.53
2023-01-23T00:34:13.389Z,2.51
2023-01-23T00:36:42.999Z,2.54
2023-01-23T00:39:16.544Z,2.59
2023-01-23T00:41:44.990Z,2.64
2023-01-23T00:44:12.005Z,2.60
2023-01-23T00:46:39.326Z,2.69
2023-01-23T00:49:06.379Z,2.64
2023-01-23T00:51:34.209Z,2.56
2023-01-23T00:54:01.939Z,2.57
2023-01-23T00:56:28.987Z,2.51
2023-01-23T00:58:56.040Z,2.51
2023-01-23T01:01:23.125Z,2.50
2023-01-23T01:03:50.533Z,2.48
2023-01-23T01:06:17.687Z,2.51
2023-01-23T01:08:44.733Z,2.55
2023-01-23T01:11:11.816Z,2.55
2023-01-23T01:13:39.297Z,2.58
2023-01-23T01:16:06.944Z,2.55
2023-01-23T01:18:36.099Z,2.52
2023-01-23T01:21:08.040Z,2.53
2023-01-23T01:23:35.229Z,2.55
2023-01-23T01:26:02.734Z,2.50
2023-01-23T01:28:30.760Z,2.45
2023-01-23T01:30:58.249Z,2.36
2023-01-23T01:33:28.471Z,2.31
2023-01-23T01:35:56.794Z,2.29
2023-01-23T01:38:24.227Z,2.27
2023-01-23T01:40:51.218Z,2.25
2023-01-23T01:43:24.131Z,2.23
2023-01-23T01:46:14.745Z,2.19
2023-01-23T01:48:50.435Z,2.19
2023-01-23T01:51:20.159Z,2.16
2023-01-23T01:53:52.700Z,2.21
2023-01-23T01:56:20.442Z,2.27
2023-01-23T01:58:52.292Z,2.31
2023-01-23T02:01:19.541Z,2.49
2023-01-23T02:03:47.182Z,2.56
2023-01-23T02:06:14.372Z,2.64
2023-01-23T02:09:01.802Z,2.68
2023-01-23T02:11:29.734Z,2.78
2023-01-23T02:13:57.286Z,2.87
2023-01-23T02:16:29.730Z,3.17
2023-01-23T02:19:03.393Z,3.17
2023-01-23T02:21:30.500Z,3.17
2023-01-23T02:24:08.305Z,3.10
2023-01-23T02:26:40.542Z,3.08
2023-01-23T02:29:08.712Z,3.06
2023-01-23T02:31:46.174Z,3.05
2023-01-23T02:34:15.070Z,3.06
2023-01-23T02:36:47.001Z,2.95
2023-01-23T02:39:17.456Z,3.01
2023-01-23T02:41:50.939Z,2.98
2023-01-23T02:44:28.591Z,3.07
2023-01-23T02:47:08.044Z,3.05
2023-01-23T02:49:35.058Z,2.98
2023-01-23T02:52:05.953Z,3.05
2023-01-23T02:54:34.734Z,3.02
2023-01-23T02:57:01.596Z,2.94
2023-01-23T02:59:48.087Z,3.05
2023-01-23T03:02:15.904Z,3.07
2023-01-23T03:04:42.888Z,2.93
2023-01-23T03:07:09.825Z,2.86
2023-01-23T03:09:37.639Z,2.96
2023-01-23T03:12:04.660Z,3.03
2023-01-23T03:14:32.646Z,3.10
2023-01-23T03:16:59.537Z,3.19
2023-01-23T03:19:31.951Z,3.15
2023-01-23T03:21:59.287Z,3.15
2023-01-23T03:24:27.133Z,3.15
2023-01-23T03:26:54.060Z,3.13
2023-01-23T03:29:45.179Z,3.13
2023-01-23T03:32:15.346Z,3.29
2023-01-23T03:34:44.001Z,3.35
2023-01-23T03:37:12.751Z,3.33
2023-01-23T03:40:01.057Z,3.34
2023-01-23T03:42:28.002Z,3.34
2023-01-23T03:44:57.528Z,3.32
2023-01-23T03:47:27.515Z,3.24
2023-01-23T03:49:55.328Z,3.20
2023-01-23T03:52:22.705Z,3.16
2023-01-23T03:54:49.892Z,3.16
2023-01-23T03:57:16.830Z,3.20
2023-01-23T03:59:52.915Z,3.13
2023-01-23T04:02:24.809Z,3.16
2023-01-23T04:04:51.891Z,3.17
2023-01-23T04:07:18.817Z,3.12
2023-01-23T04:09:45.705Z,3.18
2023-01-23T04:12:12.697Z,3.08
2023-01-23T04:14:43.292Z,2.98
2023-01-23T04:17:12.956Z,2.92
2023-01-23T04:19:39.894Z,2.90
2023-01-23T04:22:07.269Z,2.85
2023-01-23T04:24:40.459Z,2.76
2023-01-23T04:27:07.328Z,2.87
2023-01-23T04:29:35.188Z,2.82
2023-01-23T04:32:02.886Z,2.80
2023-01-23T04:34:31.693Z,2.78
2023-01-23T04:36:58.684Z,2.80
2023-01-23T04:39:25.984Z,2.77
2023-01-23T04:41:53.484Z,2.77
2023-01-23T04:44:36.705Z,2.77
2023-01-23T04:47:18.576Z,2.83
2023-01-23T04:49:46.046Z,2.86
2023-01-23T04:52:12.885Z,2.82
2023-01-23T04:54:44.559Z,2.84
2023-01-23T04:57:11.436Z,2.89
2023-01-23T04:59:38.480Z,2.97
2023-01-23T05:02:05.631Z,3.01
2023-01-23T05:04:39.024Z,3.02
2023-01-23T05:07:05.985Z,3.03
2023-01-23T05:09:39.611Z,3.09
2023-01-23T05:12:07.123Z,3.14
2023-01-23T05:14:37.612Z,3.15
2023-01-23T05:17:04.947Z,3.17
2023-01-23T05:19:39.718Z,3.19
2023-01-23T05:22:06.964Z,3.18
2023-01-23T05:24:33.800Z,3.23
2023-01-23T05:27:00.878Z,3.23
2023-01-23T05:29:30.565Z,3.23
2023-01-23T05:32:03.142Z,3.23
2023-01-23T05:34:39.447Z,3.25
2023-01-23T05:37:32.364Z,3.27
2023-01-23T05:40:06.792Z,3.24
2023-01-23T05:42:52.160Z,3.27
2023-01-23T05:45:37.828Z,3.27
2023-01-23T05:48:10.965Z,3.23
2023-01-23T05:50:38.000Z,3.27
2023-01-23T05:53:04.950Z,3.25
2023-01-23T05:55:33.125Z,3.24
2023-01-23T05:58:00.300Z,3.25
2023-01-23T06:00:29.956Z,3.32
2023-01-23T06:03:17.348Z,3.34
2023-01-23T06:05:51.093Z,3.33
2023-01-23T06:08:25.653Z,3.33
2023-01-23T06:10:52.499Z,3.37
2023-01-23T06:13:19.865Z,3.42
2023-01-23T06:15:47.126Z,3.52
2023-01-23T06:18:14.319Z,3.51
2023-01-23T06:20:41.240Z,3.50
2023-01-23T06:23:08.625Z,3.53
2023-01-23T06:25:37.553Z,3.59
2023-01-23T06:28:07.070Z,3.61
2023-01-23T06:30:35.468Z,3.63
2023-01-23T06:33:03.947Z,3.74
2023-01-23T06:35:36.010Z,3.80
2023-01-23T06:38:03.586Z,3.81
2023-01-23T06:40:30.581Z,3.81
2023-01-23T06:43:10.314Z,3.82
2023-01-23T06:45:37.212Z,3.84
2023-01-23T06:48:04.826Z,3.86
2023-01-23T06:50:31.923Z,3.83
2023-01-23T06:52:58.792Z,3.89
2023-01-23T06:55:25.819Z,3.88
2023-01-23T06:57:53.605Z,3.90
2023-01-23T07:00:21.145Z,3.95
2023-01-23T07:02:49.743Z,3.97
2023-01-23T07:05:17.606Z,3.96
2023-01-23T07:07:46.734Z,4.01
2023-01-23T07:10:13.716Z,4.03
2023-01-23T07:12:40.709Z,4.00
2023-01-23T07:15:08.928Z,4.00
2023-01-23T07:17:39.486Z,4.03
2023-01-23T07:20:07.135Z,4.03
2023-01-23T07:22:40.622Z,4.04
2023-01-23T07:25:08.205Z,4.09
2023-01-23T07:27:35.204Z,4.07
2023-01-23T07:30:02.176Z,4.20
2023-01-23T07:32:29.146Z,4.09
2023-01-23T07:34:56.119Z,4.08
2023-01-23T07:37:22.970Z,4.05
2023-01-23T07:39:50.861Z,4.02
2023-01-23T07:42:21.336Z,4.03
2023-01-23T07:44:48.374Z,4.02
2023-01-23T07:47:15.871Z,4.10
2023-01-23T07:49:42.876Z,4.12
2023-01-23T07:52:10.437Z,4.13
2023-01-23T07:54:37.838Z,4.10
2023-01-23T07:57:04.850Z,4.11
2023-01-23T07:59:31.820Z,4.17
2023-01-23T08:01:59.769Z,4.22
2023-01-23T08:04:26.754Z,4.21
2023-01-23T08:06:53.811Z,4.20
2023-01-23T08:09:20.928Z,4.14
2023-01-23T08:11:47.941Z,4.20
2023-01-23T08:14:16.585Z,4.21
2023-01-23T08:16:46.672Z,4.23
2023-01-23T08:19:13.688Z,4.23
2023-01-23T08:21:40.651Z,4.23
2023-01-23T08:24:08.034Z,4.30
2023-01-23T08:26:35.144Z,4.32
2023-01-23T08:29:03.959Z,4.30
2023-01-23T08:31:31.025Z,4.28
2023-01-23T08:33:58.101Z,4.34
2023-01-23T08:36:25.192Z,4.32
2023-01-23T08:39:02.310Z,4.27
2023-01-23T08:41:29.255Z,4.36
2023-01-23T08:43:58.503Z,4.36
2023-01-23T08:46:25.566Z,4.36
2023-01-23T08:48:52.502Z,4.31
2023-01-23T08:51:19.714Z,4.31
2023-01-23T08:53:46.659Z,4.28
2023-01-23T08:56:21.984Z,4.24
2023-01-23T08:58:49.498Z,4.26
2023-01-23T09:01:27.250Z,4.35
2023-01-23T09:03:55.247Z,4.43
2023-01-23T09:06:23.012Z,4.44
2023-01-23T09:08:49.931Z,4.40
2023-01-23T09:11:18.113Z,4.37
2023-01-23T09:13:47.176Z,4.32
2023-01-23T09:16:14.347Z,4.29
2023-01-23T09:18:41.362Z,4.28
2023-01-23T09:21:10.463Z,4.29
2023-01-23T09:23:37.825Z,4.24
2023-01-23T09:26:12.207Z,4.22
2023-01-23T09:28:42.230Z,4.20
2023-01-23T09:31:12.832Z,4.15
2023-01-23T09:33:41.176Z,4.11
2023-01-23T09:36:09.123Z,4.12
2023-01-23T09:38:36.477Z,4.07
2023-01-23T09:41:20.707Z,4.13
2023-01-23T09:44:05.529Z,4.17
2023-01-23T09:46:48.284Z,4.17
2023-01-23T09:49:28.882Z,4.18
2023-01-23T09:52:01.973Z,4.20
2023-01-23T09:54:32.065Z,4.24
2023-01-23T09:57:04.644Z,4.28
2023-01-23T09:59:50.140Z,4.32
2023-01-23T10:02:27.060Z,4.38
2023-01-23T10:04:56.311Z,4.43
2023-01-23T10:07:34.477Z,4.40
2023-01-23T10:10:13.408Z,4.42
2023-01-23T10:12:55.109Z,4.43
2023-01-23T10:15:42.965Z,4.41
2023-01-23T10:18:33.319Z,4.46
2023-01-23T10:21:18.690Z,4.49
2023-01-23T10:23:52.030Z,4.46
2023-01-23T10:26:23.660Z,4.48
2023-01-23T10:28:57.995Z,4.45
2023-01-23T10:31:36.353Z,4.47
2023-01-23T10:34:09.194Z,4.44
2023-01-23T10:37:17.152Z,4.42
2023-01-23T10:39:59.977Z,4.43
2023-01-23T10:42:28.069Z,4.41
2023-01-23T10:44:55.928Z,4.42
2023-01-23T10:47:37.102Z,4.41
2023-01-23T10:50:08.728Z,4.44
2023-01-23T10:52:43.110Z,4.47
2023-01-23T10:55:20.602Z,4.43
2023-01-23T10:57:50.203Z,4.47
2023-01-23T11:00:37.870Z,4.49
2023-01-23T11:03:20.317Z,4.48
2023-01-23T11:05:53.496Z,4.53
2023-01-23T11:08:29.464Z,4.60
2023-01-23T11:11:14.914Z,4.60
2023-01-23T11:13:47.649Z,4.58
2023-01-23T11:16:23.983Z,4.61
2023-01-23T11:19:11.907Z,4.61
2023-01-23T11:21:55.655Z,4.58
2023-01-23T11:24:38.627Z,4.61
2023-01-23T11:27:17.529Z,4.61
2023-01-23T11:30:08.907Z,4.58
2023-01-23T11:32:46.800Z,4.60
2023-01-23T11:35:20.479Z,4.53
2023-01-23T11:37:47.882Z,4.54
2023-01-23T11:40:19.813Z,4.63
2023-01-23T11:42:47.587Z,4.66
2023-01-23T11:45:46.848Z,4.66
2023-01-23T11:48:35.494Z,4.66
2023-01-23T11:51:17.732Z,4.65
2023-01-23T11:54:07.806Z,4.64
2023-01-23T11:56:53.382Z,4.62
2023-01-23T11:59:35.991Z,4.59
2023-01-23T12:03:04.902Z,4.61
2023-01-23T12:06:19.948Z,4.61
2023-01-23T12:09:07.808Z,4.65
2023-01-23T12:11:40.179Z,4.64
2023-01-23T12:14:21.407Z,4.72
2023-01-23T12:17:09.199Z,4.71
2023-01-23T12:19:36.186Z,4.68
2023-01-23T12:22:19.331Z,4.69
2023-01-23T12:24:55.355Z,4.67
2023-01-23T12:27:44.648Z,4.65
2023-01-23T12:30:32.871Z,4.65
2023-01-23T12:33:21.271Z,4.67
2023-01-23T12:36:12.621Z,4.68
2023-01-23T12:39:02.455Z,4.69
2023-01-23T12:41:38.162Z,4.69
2023-01-23T12:44:21.376Z,4.64
2023-01-23T12:47:06.968Z,4.64
2023-01-23T12:49:47.490Z,4.62
2023-01-23T12:52:14.350Z,4.63
2023-01-23T12:54:49.224Z,4.65
2023-01-23T12:57:46.278Z,4.64
2023-01-23T13:00:36.769Z,4.62
2023-01-23T13:03:16.509Z,4.60
2023-01-23T13:06:01.613Z,4.58
2023-01-23T13:08:38.097Z,4.61
2023-01-23T13:11:39.822Z,4.60
2023-01-23T13:15:10.162Z,4.60
2023-01-23T13:17:40.195Z,4.55
2023-01-23T13:20:38.481Z,4.60
2023-01-23T13:23:29.472Z,4.58
2023-01-23T13:26:23.377Z,4.60
2023-01-23T13:28:58.792Z,4.64
2023-01-23T13:31:46.923Z,4.66
2023-01-23T13:34:17.043Z,4.67
2023-01-23T13:36:46.038Z,4.68
2023-01-23T13:39:19.802Z,4.64
2023-01-23T13:41:52.537Z,4.64
2023-01-23T13:44:41.479Z,4.65
2023-01-23T14:22:35.616Z,4.58
2023-01-23T14:25:02.965Z,4.61
2023-01-23T14:27:52.281Z,4.64
2023-01-23T14:30:27.437Z,4.65
2023-01-23T14:32:54.811Z,4.67
2023-01-23T14:35:32.790Z,4.69
2023-01-23T14:38:04.840Z,4.66
2023-01-23T14:40:46.780Z,4.63
2023-01-23T14:43:23.190Z,4.64
2023-01-23T14:45:59.738Z,4.63
2023-01-23T14:48:27.592Z,4.63
2023-01-23T14:51:09.114Z,4.65
2023-01-23T14:53:40.394Z,4.67
2023-01-23T14:56:09.903Z,4.68
2023-01-23T14:58:38.050Z,4.66
2023-01-23T15:01:05.439Z,4.64
2023-01-23T15:03:41.686Z,4.68
2023-01-23T15:06:29.739Z,4.71
2023-01-23T15:09:07.082Z,4.75
2023-01-23T15:11:35.134Z,4.72
2023-01-23T15:14:02.456Z,4.77
2023-01-23T15:16:36.264Z,4.72
2023-01-23T15:19:07.587Z,4.78
2023-01-23T15:21:36.325Z,4.74
2023-01-23T15:24:26.662Z,4.72
2023-01-23T15:27:05.939Z,4.75
2023-01-23T15:29:33.834Z,4.78
2023-01-23T15:32:01.688Z,4.77
2023-01-23T15:34:34.061Z,4.78
2023-01-23T15:37:06.484Z,4.81
2023-01-23T15:39:51.688Z,4.84
2023-01-23T15:42:18.487Z,4.86
2023-01-23T15:44:45.430Z,4.90
2023-01-23T15:47:12.343Z,4.93
2023-01-23T15:49:40.504Z,4.91
2023-01-23T15:52:30.527Z,4.92
2023-01-23T15:55:00.811Z,4.92
2023-01-23T15:57:27.603Z,4.87
2023-01-23T15:59:54.490Z,4.88
2023-01-23T16:02:33.171Z,4.86
2023-01-23T16:05:02.135Z,4.96
2023-01-23T16:07:34.888Z,4.97
2023-01-23T16:10:23.383Z,4.96
2023-01-23T16:12:53.780Z,4.94
2023-01-23T16:15:23.622Z,5.06
2023-01-23T16:17:51.071Z,5.11
2023-01-23T16:20:23.946Z,5.12
2023-01-23T16:22:54.147Z,5.11
2023-01-23T16:25:43.080Z,5.05
2023-01-23T16:28:23.075Z,5.03
2023-01-23T16:30:52.056Z,5.06
2023-01-23T16:33:20.560Z,5.14
2023-01-23T16:35:49.644Z,5.15
2023-01-23T16:38:23.858Z,5.19
2023-01-23T16:40:53.474Z,5.13
2023-01-23T16:43:21.472Z,5.14
2023-01-23T16:45:48.864Z,5.14
2023-01-23T16:48:26.295Z,5.14
2023-01-23T16:50:59.068Z,5.16
2023-01-23T16:53:37.389Z,5.22
2023-01-23T16:56:05.311Z,5.27
2023-01-23T16:58:38.883Z,5.26
2023-01-23T17:01:13.898Z,5.29
2023-01-23T17:03:41.488Z,5.30
2023-01-23T17:06:15.852Z,5.31
2023-01-23T17:08:43.010Z,5.29
2023-01-23T17:11:17.892Z,5.31
2023-01-23T17:13:44.817Z,5.36
2023-01-23T17:16:26.179Z,5.47
2023-01-23T17:18:54.950Z,5.46
2023-01-23T17:21:34.800Z,5.42
2023-01-23T17:24:01.821Z,5.47
2023-01-23T17:26:28.960Z,5.49
2023-01-23T17:28:56.000Z,5.50
2023-01-23T17:31:25.756Z,5.46
2023-01-23T17:33:52.880Z,5.50
2023-01-23T17:36:20.066Z,5.50
2023-01-23T17:38:47.439Z,5.52
2023-01-23T17:41:16.534Z,5.52
2023-01-23T17:43:48.513Z,5.59
2023-01-23T17:46:44.623Z,5.56
2023-01-23T17:49:31.276Z,5.46
2023-01-23T17:52:00.874Z,5.48
2023-01-23T17:54:27.796Z,5.61
2023-01-23T17:56:54.737Z,5.68
2023-01-23T17:59:21.919Z,5.65
2023-01-23T18:01:48.864Z,5.39
2023-01-23T18:04:18.505Z,5.13
2023-01-23T18:06:46.116Z,4.89
2023-01-23T18:09:14.121Z,4.93
2023-01-23T18:11:44.180Z,4.66
2023-01-23T18:14:30.668Z,4.48
2023-01-23T18:16:58.002Z,4.24
2023-01-23T18:19:27.653Z,4.29
2023-01-23T18:21:56.841Z,4.22
2023-01-23T18:24:30.549Z,4.14
2023-01-23T18:27:18.831Z,4.22
2023-01-23T18:30:04.450Z,4.32
2023-01-23T18:32:43.591Z,4.46
2023-01-23T18:35:33.770Z,4.44
2023-01-23T18:38:21.467Z,4.39
2023-01-23T18:41:07.051Z,4.48
2023-01-23T18:43:38.804Z,4.48
2023-01-23T18:46:11.955Z,4.51
2023-01-23T18:48:41.595Z,4.52
2023-01-23T18:51:20.226Z,4.54
2023-01-23T18:53:55.456Z,4.62
2023-01-23T18:56:27.527Z,4.46
2023-01-23T18:59:12.409Z,4.49
2023-01-23T19:01:53.495Z,4.33
2023-01-23T19:05:10.252Z,4.26
2023-01-23T19:07:37.838Z,4.31
2023-01-23T19:10:12.827Z,4.00
2023-01-23T19:13:01.204Z,3.92
2023-01-23T19:15:43.315Z,3.92
2023-01-23T19:18:44.888Z,4.09
2023-01-23T19:21:18.104Z,4.06
2023-01-23T19:23:46.811Z,4.09
2023-01-23T19:26:15.059Z,4.16
2023-01-23T19:28:42.172Z,4.28
2023-01-23T19:31:20.924Z,4.24
2023-01-23T19:33:48.337Z,4.26
2023-01-23T19:36:15.229Z,4.30
2023-01-23T19:38:42.164Z,4.33
2023-01-23T19:41:19.761Z,4.44
2023-01-23T19:43:48.455Z,4.57
2023-01-23T19:46:15.559Z,4.44
2023-01-23T19:48:42.615Z,4.36
2023-01-23T19:51:19.371Z,4.30
2023-01-23T19:53:46.818Z,4.32
2023-01-23T19:56:17.995Z,4.22
2023-01-23T19:58:45.414Z,4.25
2023-01-23T20:01:23.463Z,4.20
2023-01-23T20:03:51.141Z,4.30
2023-01-23T20:06:18.169Z,4.17
2023-01-23T20:08:45.036Z,4.29
2023-01-23T20:11:12.607Z,4.38
2023-01-23T20:13:43.209Z,4.22
2023-01-23T20:16:20.926Z,4.34
2023-01-23T20:18:49.045Z,4.29
2023-01-23T20:21:17.653Z,4.32
2023-01-23T20:23:45.496Z,4.19
2023-01-23T20:26:13.310Z,4.32
2023-01-23T20:28:40.468Z,4.48
2023-01-23T20:31:10.140Z,4.42
2023-01-23T20:33:38.012Z,4.31
2023-01-23T20:36:05.917Z,4.25
2023-01-23T20:38:33.153Z,4.20
2023-01-23T20:41:20.415Z,4.01
2023-01-23T20:43:47.839Z,4.11
2023-01-23T20:46:16.195Z,4.01
2023-01-23T20:48:44.945Z,4.05
2023-01-23T20:51:13.990Z,4.07
2023-01-23T20:53:41.125Z,4.01
2023-01-23T20:56:11.554Z,4.07
2023-01-23T20:59:00.145Z,3.84
2023-01-23T21:01:30.063Z,3.87
2023-01-23T21:03:57.009Z,3.87
2023-01-23T21:06:23.912Z,3.97
2023-01-23T21:08:50.781Z,4.01
2023-01-23T21:11:19.796Z,4.11
2023-01-23T21:13:53.613Z,4.08
2023-01-23T21:16:20.759Z,4.13
2023-01-23T21:18:47.994Z,4.23
2023-01-23T21:21:19.964Z,4.32
2023-01-23T21:23:49.405Z,4.36
2023-01-23T21:26:18.519Z,4.28
2023-01-23T21:28:47.157Z,4.46
2023-01-23T21:31:26.630Z,4.42
2023-01-23T21:33:54.404Z,4.34
2023-01-23T21:36:24.028Z,4.25
2023-01-23T21:38:51.540Z,4.14
2023-01-23T21:41:19.085Z,4.24
2023-01-23T21:43:46.295Z,4.22
2023-01-23T21:46:13.883Z,4.31
2023-01-23T21:48:40.877Z,4.51
2023-01-23T21:51:13.559Z,4.45
2023-01-23T21:53:43.349Z,4.37
2023-01-23T21:56:11.994Z,4.46
2023-01-23T21:58:39.065Z,4.38
2023-01-23T22:01:29.842Z,4.20
2023-01-23T22:03:56.964Z,4.31
2023-01-23T22:06:23.765Z,4.40
2023-01-23T22:08:50.785Z,4.33
2023-01-23T22:11:17.592Z,4.49
2023-01-23T22:13:44.561Z,4.31
2023-01-23T22:16:12.471Z,4.38
2023-01-23T22:18:39.444Z,4.35
2023-01-23T22:21:07.345Z,4.38
2023-01-23T22:23:35.018Z,4.40
2023-01-23T22:26:08.070Z,4.28
2023-01-23T22:28:35.696Z,4.28
2023-01-23T22:31:11.875Z,4.29
2023-01-23T22:33:41.188Z,4.24
2023-01-23T22:36:12.156Z,4.16
2023-01-23T22:38:39.232Z,4.25
2023-01-23T22:41:07.086Z,4.25
2023-01-23T22:43:37.251Z,4.17
2023-01-23T22:46:13.599Z,4.10
2023-01-23T22:48:40.965Z,4.11
2023-01-23T22:51:17.134Z,4.18
2023-01-23T22:53:44.158Z,4.19
2023-01-23T22:56:11.354Z,4.25
2023-01-23T22:58:38.640Z,4.39
2023-01-23T23:01:06.255Z,4.24
2023-01-23T23:03:34.977Z,4.01
2023-01-23T23:06:07.772Z,3.98
2023-01-23T23:08:35.467Z,3.99
2023-01-23T23:11:11.096Z,4.06
2023-01-23T23:13:39.668Z,4.05
2023-01-23T23:16:15.515Z,4.09
2023-01-23T23:18:42.384Z,3.87
2023-01-23T23:21:11.998Z,3.86
2023-01-23T23:23:39.304Z,4.06
2023-01-23T23:26:08.738Z,3.90
2023-01-23T23:28:37.109Z,4.01
2023-01-23T23:31:04.682Z,3.94
2023-01-23T23:33:31.599Z,3.98
2023-01-23T23:35:58.425Z,3.96
2023-01-23T23:38:25.369Z,4.01
2023-01-23T23:41:06.608Z,4.03
2023-01-23T23:43:34.144Z,3.98
2023-01-23T23:46:03.088Z,4.11
2023-01-23T23:48:31.598Z,4.00
2023-01-23T23:51:06.614Z,4.10
2023-01-23T23:53:34.752Z,4.16
2023-01-23T23:56:01.747Z,4.05
2023-01-23T23:58:28.671Z,3.89
